Time;durP1;ratioP1;P1;durP2;ratioP2;P2;SDS_P1;SDS_P2;PMS_P1;PMS_P2;Temp;Humidity;BMP_temperature;BMP_pressure;BME280_temperature;BME280_humidity;BME280_pressure;Samples;Min_cycle;Max_cycle;Signal;HPM_P1;HPM_P2
2022/04/14 00:00:41;;;;;;;9.15;5.07;;;;;;;;;;10380960;28;20108;-77
2022/04/14 00:05:41;;;;;;;6.35;4.32;;;;;;;;;;10380339;28;20042;-74
2022/04/14 00:10:41;;;;;;;10.55;5.85;;;;;;;;;;10364485;28;20025;-70
2022/04/14 00:15:42;;;;;;;8.48;5.25;;;;;;;;;;10347584;28;20030;-71
2022/04/14 00:20:42;;;;;;;6.72;3.85;;;;;;;;;;10380266;28;20129;-74
2022/04/14 00:25:43;;;;;;;6.13;4.55;;;;;;;;;;10380621;28;20026;-74
2022/04/14 00:30:43;;;;;;;14.15;4.95;;;;;;;;;;10364711;28;20030;-70
2022/04/14 00:35:43;;;;;;;7.83;5.27;;;;;;;;;;10364319;28;20039;-73
2022/04/14 00:40:44;;;;;;;5.77;4.40;;;;;;;;;;10379761;28;20056;-74
2022/04/14 00:45:44;;;;;;;7.07;4.45;;;;;;;;;;10378836;28;20052;-71
2022/04/14 00:50:44;;;;;;;11.07;4.30;;;;;;;;;;10379000;28;20022;-76
2022/04/14 00:55:45;;;;;;;9.80;4.05;;;;;;;;;;10378493;28;20025;-73
2022/04/14 01:00:45;;;;;;;4.13;3.80;;;;;;;;;;10395244;28;20046;-71
2022/04/14 01:05:46;;;;;;;14.27;4.03;;;;;;;;;;10386586;28;20030;-72
2022/04/14 01:10:49;;;;;;;7.25;4.93;;;;;;;;;;10403899;28;20426;-71
2022/04/14 01:15:55;;;;;;;8.23;4.85;;;;;;;;;;10403919;28;20025;-75
2022/04/14 01:20:55;;;;;;;8.55;4.50;;;;;;;;;;10402806;28;20133;-73
2022/04/14 01:25:56;;;;;;;6.37;4.33;;;;;;;;;;10402181;28;20018;-70
2022/04/14 01:30:56;;;;;;;7.70;4.32;;;;;;;;;;10403472;28;20053;-68
2022/04/14 01:35:56;;;;;;;5.23;4.57;;;;;;;;;;10402087;28;20136;-73
2022/04/14 01:40:56;;;;;;;8.82;4.65;;;;;;;;;;10385822;28;20034;-71
2022/04/14 01:45:57;;;;;;;7.95;5.03;;;;;;;;;;10402942;28;20041;-71
2022/04/14 01:50:57;;;;;;;6.70;4.93;;;;;;;;;;10385110;28;20018;-72
2022/04/14 01:55:57;;;;;;;12.63;6.13;;;;;;;;;;10402677;28;20421;-71
2022/04/14 02:00:58;;;;;;;9.80;5.40;;;;;;;;;;10401069;28;20509;-76
2022/04/14 02:05:58;;;;;;;8.32;5.47;;;;;;;;;;10401620;28;20420;-70
2022/04/14 02:10:58;;;;;;;7.88;6.75;;;;;;;;;;10401474;28;20066;-74
2022/04/14 02:15:58;;;;;;;8.77;6.93;;;;;;;;;;10401008;28;20028;-71
2022/04/14 02:20:59;;;;;;;9.73;6.47;;;;;;;;;;10401262;28;20109;-76
2022/04/14 02:26:00;;;;;;;9.70;6.43;;;;;;;;;;10401031;28;20025;-73
2022/04/14 02:31:00;;;;;;;8.43;5.27;;;;;;;;;;10401169;28;20040;-73
2022/04/14 02:36:00;;;;;;;7.18;5.38;;;;;;;;;;10385407;28;20032;-72
2022/04/14 02:41:01;;;;;;;8.25;5.75;;;;;;;;;;10400885;28;20429;-74
2022/04/14 02:46:01;;;;;;;10.23;7.53;;;;;;;;;;10383842;28;20108;-74
2022/04/14 02:51:01;;;;;;;10.07;6.30;;;;;;;;;;10384136;28;20137;-74
2022/04/14 02:56:02;;;;;;;8.53;5.90;;;;;;;;;;10401783;28;20021;-71
2022/04/14 03:01:02;;;;;;;6.78;5.90;;;;;;;;;;10387630;28;20042;-75
2022/04/14 03:06:03;;;;;;;12.70;7.78;;;;;;;;;;10407647;28;20037;-70
2022/04/14 03:11:03;;;;;;;9.63;6.50;;;;;;;;;;10407499;28;20459;-71
2022/04/14 03:16:04;;;;;;;11.75;6.85;;;;;;;;;;10408299;28;20479;-72
2022/04/14 03:21:04;;;;;;;8.40;5.82;;;;;;;;;;10406863;28;20040;-75
2022/04/14 03:26:08;;;;;;;13.65;5.30;;;;;;;;;;10408462;28;20025;-71
2022/04/14 03:31:10;;;;;;;5.95;4.70;;;;;;;;;;10406485;28;20083;-72
2022/04/14 03:36:10;;;;;;;7.13;5.63;;;;;;;;;;10406624;28;20120;-73
2022/04/14 03:41:10;;;;;;;9.47;6.10;;;;;;;;;;10416852;28;20506;-78
2022/04/14 03:46:10;;;;;;;10.38;6.43;;;;;;;;;;10429469;28;20040;-72
2022/04/14 03:51:14;;;;;;;8.00;6.47;;;;;;;;;;10429865;28;20028;-73
2022/04/14 03:56:14;;;;;;;27.77;6.95;;;;;;;;;;10418507;28;20120;-72
2022/04/14 04:01:15;;;;;;;14.30;5.67;;;;;;;;;;10376411;28;20060;-78
2022/04/14 04:06:15;;;;;;;14.07;6.30;;;;;;;;;;10394199;28;20675;-72
2022/04/14 04:11:15;;;;;;;8.02;5.90;;;;;;;;;;10403716;28;20053;-71
2022/04/14 04:16:15;;;;;;;8.75;6.63;;;;;;;;;;10405296;28;20037;-73
2022/04/14 04:21:16;;;;;;;9.93;6.45;;;;;;;;;;10403411;28;20095;-72
2022/04/14 04:26:16;;;;;;;12.65;9.10;;;;;;;;;;10403092;28;20121;-74
2022/04/14 04:31:16;;;;;;;11.68;8.30;;;;;;;;;;10402635;28;20441;-74
2022/04/14 04:36:17;;;;;;;16.63;10.02;;;;;;;;;;10403151;28;20481;-73
2022/04/14 04:41:17;;;;;;;25.20;11.45;;;;;;;;;;10401092;28;20029;-73
2022/04/14 04:46:18;;;;;;;30.63;10.43;;;;;;;;;;10369028;28;20489;-72
2022/04/14 04:51:19;;;;;;;26.77;11.03;;;;;;;;;;10382102;28;20150;-73
2022/04/14 04:56:19;;;;;;;20.42;10.20;;;;;;;;;;10361162;28;20025;-72
2022/04/14 05:01:19;;;;;;;14.07;8.67;;;;;;;;;;10378426;28;20069;-72
2022/04/14 05:06:19;;;;;;;17.67;8.40;;;;;;;;;;10394279;28;20486;-72
2022/04/14 05:11:20;;;;;;;13.27;7.00;;;;;;;;;;10391985;28;20025;-72
2022/04/14 05:16:20;;;;;;;19.23;7.03;;;;;;;;;;10402242;28;20033;-73
2022/04/14 05:21:20;;;;;;;17.08;8.45;;;;;;;;;;10400381;28;20033;-73
2022/04/14 05:26:21;;;;;;;22.73;11.02;;;;;;;;;;10370394;28;20042;-72
2022/04/14 05:31:21;;;;;;;24.40;9.13;;;;;;;;;;10377566;28;20116;-72
2022/04/14 05:36:21;;;;;;;20.15;9.43;;;;;;;;;;10361255;28;20067;-78
2022/04/14 05:41:22;;;;;;;16.63;7.38;;;;;;;;;;10362010;28;20057;-73
2022/04/14 05:46:22;;;;;;;19.15;8.85;;;;;;;;;;10380158;28;20111;-80
2022/04/14 05:51:23;;;;;;;17.70;8.02;;;;;;;;;;10377119;28;20044;-74
2022/04/14 05:56:23;;;;;;;16.53;7.87;;;;;;;;;;10376306;28;20033;-71
2022/04/14 06:01:25;;;;;;;20.48;9.20;;;;;;;;;;10359693;28;20129;-76
2022/04/14 06:06:25;;;;;;;14.43;6.50;;;;;;;;;;10376387;28;20034;-71
2022/04/14 06:11:26;;;;;;;11.82;6.65;;;;;;;;;;10360716;28;20022;-72
2022/04/14 06:16:27;;;;;;;17.98;6.35;;;;;;;;;;10360853;28;20460;-73
2022/04/14 06:21:27;;;;;;;10.50;4.50;;;;;;;;;;10375794;28;20030;-73
2022/04/14 06:26:27;;;;;;;8.35;3.75;;;;;;;;;;10375687;28;20609;-73
2022/04/14 06:31:27;;;;;;;9.97;4.07;;;;;;;;;;10362377;28;20473;-73
2022/04/14 06:36:28;;;;;;;7.45;3.70;;;;;;;;;;10382253;28;20490;-76
2022/04/14 06:41:28;;;;;;;9.85;4.35;;;;;;;;;;10385532;28;20476;-72
2022/04/14 06:46:29;;;;;;;10.25;4.45;;;;;;;;;;10368424;28;20029;-73
2022/04/14 06:51:29;;;;;;;15.85;8.20;;;;;;;;;;10367591;28;20024;-73
2022/04/14 06:56:30;;;;;;;8.98;5.22;;;;;;;;;;10382999;28;20029;-75
2022/04/14 07:01:30;;;;;;;13.97;5.47;;;;;;;;;;10383629;28;20049;-72
2022/04/14 07:06:30;;;;;;;7.87;4.07;;;;;;;;;;10367080;28;20033;-79
2022/04/14 07:11:31;;;;;;;8.43;4.18;;;;;;;;;;10382715;28;20079;-73
2022/04/14 07:16:31;;;;;;;12.70;4.63;;;;;;;;;;10382247;28;20036;-79
2022/04/14 07:21:31;;;;;;;13.13;5.53;;;;;;;;;;10367212;28;20033;-74
2022/04/14 07:26:31;;;;;;;11.73;4.75;;;;;;;;;;10365377;28;20045;-73
2022/04/14 07:31:32;;;;;;;10.38;5.43;;;;;;;;;;10381952;28;20172;-72
2022/04/14 07:36:32;;;;;;;16.47;5.03;;;;;;;;;;10381251;28;20025;-76
2022/04/14 07:41:32;;;;;;;13.00;6.53;;;;;;;;;;10381642;28;20025;-73
2022/04/14 07:46:35;;;;;;;11.73;5.90;;;;;;;;;;10363921;28;20030;-76
2022/04/14 07:51:35;;;;;;;11.20;4.60;;;;;;;;;;10367666;28;20497;-76
2022/04/14 07:56:36;;;;;;;13.80;4.93;;;;;;;;;;10364257;28;20025;-73
2022/04/14 08:01:36;;;;;;;11.07;4.63;;;;;;;;;;10380364;28;20045;-73
2022/04/14 08:06:37;;;;;;;8.48;4.43;;;;;;;;;;10380289;28;20030;-71
2022/04/14 08:11:38;;;;;;;13.90;5.20;;;;;;;;;;10365014;28;20025;-75
2022/04/14 08:16:38;;;;;;;9.40;4.68;;;;;;;;;;10365234;28;20064;-76
2022/04/14 08:21:38;;;;;;;22.45;6.10;;;;;;;;;;10363211;28;20026;-72
2022/04/14 08:26:39;;;;;;;13.93;4.80;;;;;;;;;;10379539;28;20029;-75
2022/04/14 08:31:39;;;;;;;9.27;4.65;;;;;;;;;;10379586;28;20947;-73
2022/04/14 08:36:40;;;;;;;9.98;4.35;;;;;;;;;;10383248;28;20029;-72
2022/04/14 08:41:44;;;;;;;10.20;4.10;;;;;;;;;;10403262;28;20029;-71
2022/04/14 08:46:46;;;;;;;9.30;4.70;;;;;;;;;;10386854;28;20029;-73
2022/04/14 08:51:47;;;;;;;7.28;4.25;;;;;;;;;;10402723;28;20018;-73
2022/04/14 08:56:49;;;;;;;8.63;4.18;;;;;;;;;;10403226;28;20044;-76
2022/04/14 09:01:50;;;;;;;10.00;4.55;;;;;;;;;;10402749;28;20049;-76
2022/04/14 09:06:50;;;;;;;9.13;4.25;;;;;;;;;;10401851;28;20025;-76
2022/04/14 09:11:50;;;;;;;7.47;3.20;;;;;;;;;;10402822;28;20033;-72
2022/04/14 09:16:51;;;;;;;7.72;3.30;;;;;;;;;;10403550;28;20199;-76
2022/04/14 09:22:02;;;;;;;8.43;2.97;;;;;;;;;;10385224;28;20032;-75
2022/04/14 09:27:02;;;;;;;6.47;3.58;;;;;;;;;;10401214;28;20574;-74
2022/04/14 09:32:03;;;;;;;12.33;4.70;;;;;;;;;;10402745;28;20025;-75
2022/04/14 09:37:07;;;;;;;9.50;3.40;;;;;;;;;;10401494;28;20643;-71
2022/04/14 09:42:12;;;;;;;5.22;2.67;;;;;;;;;;10402909;28;20850;-71
2022/04/14 09:47:21;;;;;;;5.28;3.00;;;;;;;;;;10402741;28;20436;-73
2022/04/14 09:52:21;;;;;;;4.97;2.50;;;;;;;;;;10400806;28;20454;-74
2022/04/14 09:57:22;;;;;;;6.77;1.87;;;;;;;;;;10404811;28;20110;-73
2022/04/14 10:02:22;;;;;;;3.17;1.83;;;;;;;;;;10425994;28;20389;-73
2022/04/14 10:07:22;;;;;;;4.63;1.88;;;;;;;;;;10441537;28;20039;-76
2022/04/14 10:12:23;;;;;;;3.50;1.90;;;;;;;;;;10451041;28;20025;-73
2022/04/14 10:17:24;;;;;;;1.95;1.63;;;;;;;;;;10450148;28;20029;-73
2022/04/14 10:22:26;;;;;;;4.90;2.00;;;;;;;;;;10449388;28;20021;-73
2022/04/14 10:27:27;;;;;;;6.20;1.20;;;;;;;;;;10449662;28;20025;-71
2022/04/14 10:32:27;;;;;;;7.95;1.85;;;;;;;;;;10449821;28;20496;-74
2022/04/14 10:37:30;;;;;;;3.23;2.00;;;;;;;;;;10449426;28;20112;-71
2022/04/14 10:42:31;;;;;;;6.18;2.15;;;;;;;;;;10449311;28;20025;-73
2022/04/14 10:47:43;;;;;;;6.85;2.58;;;;;;;;;;10432588;28;20859;-72
2022/04/14 10:52:59;;;;;;;5.07;1.90;;;;;;;;;;10448642;28;20021;-73
2022/04/14 10:58:00;;;;;;;7.07;2.58;;;;;;;;;;10450372;28;20056;-73
2022/04/14 11:03:01;;;;;;;5.55;1.92;;;;;;;;;;10449676;28;20033;-73
2022/04/14 11:08:20;;;;;;;4.53;2.10;;;;;;;;;;10449808;28;20059;-73
2022/04/14 11:13:20;;;;;;;7.22;1.73;;;;;;;;;;10449853;28;20028;-77
2022/04/14 11:18:20;;;;;;;3.28;1.83;;;;;;;;;;10431716;28;20773;-72
2022/04/14 11:23:24;;;;;;;3.80;2.03;;;;;;;;;;10447817;28;20408;-73
2022/04/14 11:28:28;;;;;;;4.50;2.50;;;;;;;;;;10448999;28;20100;-72
2022/04/14 11:33:31;;;;;;;4.03;2.67;;;;;;;;;;10446952;28;20598;-71
2022/04/14 11:38:51;;;;;;;6.47;2.55;;;;;;;;;;10447428;28;20033;-74
2022/04/14 11:43:52;;;;;;;7.40;2.70;;;;;;;;;;10446373;28;20057;-74
2022/04/14 11:48:52;;;;;;;5.35;2.92;;;;;;;;;;10446813;28;20111;-72
2022/04/14 11:53:55;;;;;;;7.07;2.80;;;;;;;;;;10430668;28;20033;-76
2022/04/14 11:58:56;;;;;;;10.30;5.53;;;;;;;;;;10449075;28;20452;-73
2022/04/14 12:03:56;;;;;;;3.30;2.67;;;;;;;;;;10445866;28;20090;-77
2022/04/14 12:08:58;;;;;;;10.13;3.10;;;;;;;;;;10446382;28;20412;-72
2022/04/14 12:13:58;;;;;;;5.95;2.97;;;;;;;;;;10413048;28;20563;-80
2022/04/14 12:19:00;;;;;;;7.57;2.37;;;;;;;;;;10425706;28;20029;-78
2022/04/14 12:24:00;;;;;;;6.00;2.90;;;;;;;;;;10423623;28;20546;-75
2022/04/14 12:29:01;;;;;;;4.63;2.80;;;;;;;;;;10413773;28;20029;-76
2022/04/14 12:34:01;;;;;;;8.15;3.47;;;;;;;;;;10397376;28;20051;-74
2022/04/14 12:39:17;;;;;;;3.43;2.50;;;;;;;;;;10408896;28;20029;-73
2022/04/14 12:44:18;;;;;;;7.38;3.20;;;;;;;;;;10414386;28;20124;-75
2022/04/14 12:49:32;;;;;;;5.15;3.45;;;;;;;;;;10405293;28;20474;-77
2022/04/14 12:54:34;;;;;;;6.15;3.03;;;;;;;;;;10420071;28;20040;-74
2022/04/14 12:59:35;;;;;;;5.18;2.83;;;;;;;;;;10421949;28;20427;-78
2022/04/14 13:04:36;;;;;;;7.55;3.63;;;;;;;;;;10421865;28;20037;-79
2022/04/14 13:09:38;;;;;;;7.78;2.95;;;;;;;;;;10414091;28;20021;-76
2022/04/14 13:14:47;;;;;;;5.50;3.85;;;;;;;;;;10421452;28;20511;-73
2022/04/14 13:19:47;;;;;;;5.13;3.17;;;;;;;;;;10414072;28;20036;-73
2022/04/14 13:24:47;;;;;;;9.85;3.47;;;;;;;;;;10408391;28;20500;-74
2022/04/14 13:29:48;;;;;;;7.20;3.20;;;;;;;;;;10415799;28;20044;-77
2022/04/14 13:34:48;;;;;;;7.00;3.33;;;;;;;;;;10420814;28;20025;-77
2022/04/14 13:39:49;;;;;;;5.72;3.15;;;;;;;;;;10417811;28;20025;-72
2022/04/14 13:44:51;;;;;;;7.10;3.22;;;;;;;;;;10423808;28;20021;-71
2022/04/14 13:49:51;;;;;;;8.35;3.75;;;;;;;;;;10412559;28;20021;-76
2022/04/14 13:54:51;;;;;;;9.18;4.40;;;;;;;;;;10421117;28;20025;-73
2022/04/14 13:59:51;;;;;;;9.47;3.37;;;;;;;;;;10422499;28;20114;-74
2022/04/14 14:04:52;;;;;;;7.10;4.10;;;;;;;;;;10419016;28;20099;-73
2022/04/14 14:09:52;;;;;;;7.03;3.65;;;;;;;;;;10412874;28;20025;-79
2022/04/14 14:14:53;;;;;;;7.90;3.55;;;;;;;;;;10421320;28;20505;-72
2022/04/14 14:19:53;;;;;;;6.50;4.03;;;;;;;;;;10408541;28;20043;-78
2022/04/14 14:24:53;;;;;;;5.30;3.70;;;;;;;;;;10421709;28;20397;-77
2022/04/14 14:29:53;;;;;;;10.10;3.35;;;;;;;;;;10412286;28;20481;-71
2022/04/14 14:34:54;;;;;;;7.50;3.60;;;;;;;;;;10421274;28;20408;-73
2022/04/14 14:39:54;;;;;;;6.37;4.27;;;;;;;;;;10410627;28;20500;-79
2022/04/14 14:44:55;;;;;;;13.98;5.30;;;;;;;;;;10419708;28;20037;-71
2022/04/14 14:49:55;;;;;;;4.53;2.90;;;;;;;;;;10412186;28;20028;-72
2022/04/14 14:54:56;;;;;;;10.23;3.47;;;;;;;;;;10412202;28;20037;-71
2022/04/14 14:59:56;;;;;;;8.30;3.33;;;;;;;;;;10448201;28;20045;-74
2022/04/14 15:04:56;;;;;;;10.05;3.45;;;;;;;;;;10431339;28;20036;-74
2022/04/14 15:09:56;;;;;;;26.13;10.57;;;;;;;;;;10431310;28;20500;-69
2022/04/14 15:14:57;;;;;;;6.90;4.93;;;;;;;;;;10448728;28;20402;-70
2022/04/14 15:19:57;;;;;;;4.93;3.13;;;;;;;;;;10446880;28;20161;-70
2022/04/14 15:24:57;;;;;;;10.23;4.40;;;;;;;;;;10462154;28;20484;-77
2022/04/14 15:29:59;;;;;;;6.22;3.90;;;;;;;;;;10420290;28;20421;-71
2022/04/14 15:34:59;;;;;;;6.95;4.00;;;;;;;;;;10388940;28;20116;-74
2022/04/14 15:39:59;;;;;;;6.53;3.38;;;;;;;;;;10407003;28;20065;-75
2022/04/14 15:44:59;;;;;;;3.83;2.78;;;;;;;;;;10428924;28;20473;-70
2022/04/14 15:50:00;;;;;;;6.38;3.28;;;;;;;;;;10445619;28;20017;-70
2022/04/14 15:55:00;;;;;;;12.82;3.17;;;;;;;;;;10409884;28;20026;-74
2022/04/14 16:00:00;;;;;;;6.20;3.80;;;;;;;;;;10405063;28;20068;-74
2022/04/14 16:05:01;;;;;;;7.90;3.22;;;;;;;;;;10387495;28;20045;-73
2022/04/14 16:15:21;;;;;;;7.70;3.75;;;;;;;;;;10406590;28;20108;-73
2022/04/14 16:20:21;;;;;;;10.70;3.45;;;;;;;;;;10424406;28;20024;-75
2022/04/14 16:25:23;;;;;;;10.57;3.97;;;;;;;;;;10412670;28;20021;-74
2022/04/14 16:30:24;;;;;;;9.68;3.85;;;;;;;;;;10429172;28;20021;-71
2022/04/14 16:35:25;;;;;;;11.65;3.67;;;;;;;;;;10445676;28;20412;-69
2022/04/14 16:40:25;;;;;;;16.33;4.70;;;;;;;;;;10445793;28;20082;-70
2022/04/14 16:45:26;;;;;;;11.32;4.10;;;;;;;;;;10424507;28;20025;-74
2022/04/14 16:50:26;;;;;;;8.52;3.88;;;;;;;;;;10404374;28;20033;-70
2022/04/14 16:55:26;;;;;;;11.63;4.57;;;;;;;;;;10405204;28;20021;-75
2022/04/14 17:00:27;;;;;;;11.93;4.45;;;;;;;;;;10414596;28;20528;-75
2022/04/14 17:05:27;;;;;;;17.30;3.97;;;;;;;;;;10422948;28;20029;-75
2022/04/14 17:10:28;;;;;;;16.73;5.13;;;;;;;;;;10413942;28;20022;-70
2022/04/14 17:15:28;;;;;;;12.00;4.47;;;;;;;;;;10422676;28;20033;-70
2022/04/14 17:20:29;;;;;;;14.90;5.60;;;;;;;;;;10416746;28;20543;-79
2022/04/14 17:25:29;;;;;;;13.83;5.43;;;;;;;;;;10407080;28;20064;-71
2022/04/14 17:30:30;;;;;;;20.90;5.95;;;;;;;;;;10424613;28;20422;-70
2022/04/14 17:35:30;;;;;;;16.85;5.15;;;;;;;;;;10431497;28;20024;-71
2022/04/14 17:40:31;;;;;;;14.07;5.80;;;;;;;;;;10423773;28;20020;-71
2022/04/14 17:45:31;;;;;;;20.42;6.30;;;;;;;;;;10417965;28;20033;-69
2022/04/14 17:50:32;;;;;;;16.17;7.13;;;;;;;;;;10423310;28;20018;-72
2022/04/14 17:55:32;;;;;;;21.50;5.90;;;;;;;;;;10423682;28;20020;-71
2022/04/14 18:00:34;;;;;;;15.30;5.22;;;;;;;;;;10414814;28;20037;-74
2022/04/14 18:05:34;;;;;;;11.57;5.40;;;;;;;;;;10432240;28;20025;-71
2022/04/14 18:10:35;;;;;;;8.37;4.53;;;;;;;;;;10424196;28;20404;-71
2022/04/14 18:15:35;;;;;;;9.93;5.65;;;;;;;;;;10420804;28;20066;-72
2022/04/14 18:20:38;;;;;;;13.52;5.18;;;;;;;;;;10413047;28;20029;-73
2022/04/14 18:25:39;;;;;;;13.98;5.43;;;;;;;;;;10425660;28;20095;-74
2022/04/14 18:30:40;;;;;;;8.98;4.63;;;;;;;;;;10415574;28;20014;-71
2022/04/14 18:35:40;;;;;;;10.90;4.13;;;;;;;;;;10421340;28;20025;-74
2022/04/14 18:40:41;;;;;;;8.43;3.67;;;;;;;;;;10432334;28;20264;-70
2022/04/14 18:45:41;;;;;;;41.05;16.90;;;;;;;;;;10450384;28;20108;-70
2022/04/14 18:50:42;;;;;;;4.57;2.93;;;;;;;;;;10450777;28;20548;-70
2022/04/14 18:55:42;;;;;;;4.37;3.07;;;;;;;;;;10449070;28;20631;-70
2022/04/14 19:00:42;;;;;;;5.60;2.90;;;;;;;;;;10442714;28;20326;-70
2022/04/14 19:05:43;;;;;;;5.03;2.67;;;;;;;;;;10407387;28;20496;-71
2022/04/14 19:10:43;;;;;;;7.80;3.05;;;;;;;;;;10406302;28;20013;-71
2022/04/14 19:15:43;;;;;;;5.17;3.13;;;;;;;;;;10443278;28;20032;-71
2022/04/14 19:20:44;;;;;;;9.63;3.08;;;;;;;;;;10440709;28;20012;-71
2022/04/14 19:25:45;;;;;;;6.85;3.30;;;;;;;;;;10393855;28;20026;-75
2022/04/14 19:30:47;;;;;;;4.68;2.60;;;;;;;;;;10428178;28;20021;-76
2022/04/14 19:35:47;;;;;;;6.05;3.28;;;;;;;;;;10444092;28;20459;-75
2022/04/14 19:40:48;;;;;;;10.53;3.73;;;;;;;;;;10439590;28;20028;-71
2022/04/14 19:45:48;;;;;;;6.07;3.23;;;;;;;;;;10417243;28;20021;-75
2022/04/14 19:50:50;;;;;;;8.32;3.83;;;;;;;;;;10427547;28;20408;-73
2022/04/14 19:55:52;;;;;;;7.82;3.42;;;;;;;;;;10433251;28;20095;-70
2022/04/14 20:00:52;;;;;;;5.22;2.95;;;;;;;;;;10396171;28;20458;-71
2022/04/14 20:05:53;;;;;;;9.18;3.03;;;;;;;;;;10429039;28;20055;-69
2022/04/14 20:10:55;;;;;;;7.97;3.25;;;;;;;;;;10420628;28;20033;-70
2022/04/14 20:15:55;;;;;;;9.10;3.88;;;;;;;;;;10422932;28;20030;-73
2022/04/14 20:20:57;;;;;;;5.75;3.05;;;;;;;;;;10425893;28;20068;-70
2022/04/14 20:25:57;;;;;;;5.45;2.90;;;;;;;;;;10430875;28;20025;-71
2022/04/14 20:30:57;;;;;;;6.23;3.27;;;;;;;;;;10417655;28;20416;-75
2022/04/14 20:35:58;;;;;;;7.20;3.27;;;;;;;;;;10413322;28;20024;-75
2022/04/14 20:40:58;;;;;;;5.35;3.08;;;;;;;;;;10424568;28;20029;-71
2022/04/14 20:45:58;;;;;;;6.43;2.85;;;;;;;;;;10413906;28;20033;-72
2022/04/14 20:50:59;;;;;;;5.22;3.40;;;;;;;;;;10425321;28;20060;-72
2022/04/14 20:56:00;;;;;;;9.48;3.35;;;;;;;;;;10422607;28;20068;-73
2022/04/14 21:01:00;;;;;;;4.35;2.50;;;;;;;;;;10401130;28;20527;-77
2022/04/14 21:06:00;;;;;;;6.20;3.43;;;;;;;;;;10423148;28;20037;-69
2022/04/14 21:11:00;;;;;;;5.50;3.15;;;;;;;;;;10416945;28;20025;-74
2022/04/14 21:16:01;;;;;;;5.28;2.88;;;;;;;;;;10396160;28;20077;-73
2022/04/14 21:21:01;;;;;;;13.47;4.17;;;;;;;;;;10408502;28;20471;-73
2022/04/14 21:26:02;;;;;;;4.57;2.97;;;;;;;;;;10409422;28;20124;-74
2022/04/14 21:31:02;;;;;;;7.15;3.08;;;;;;;;;;10410311;28;20029;-69
2022/04/14 21:36:03;;;;;;;5.10;3.30;;;;;;;;;;10422476;28;20022;-70
2022/04/14 21:41:04;;;;;;;6.95;4.00;;;;;;;;;;10413254;28;20071;-70
2022/04/14 21:46:05;;;;;;;4.65;3.15;;;;;;;;;;10430022;28;20041;-69
2022/04/14 21:51:06;;;;;;;4.20;3.15;;;;;;;;;;10423579;28;20432;-73
2022/04/14 21:56:06;;;;;;;4.93;3.20;;;;;;;;;;10427237;28;20039;-72
2022/04/14 22:01:07;;;;;;;5.10;2.88;;;;;;;;;;10427408;28;20059;-71
2022/04/14 22:06:07;;;;;;;5.43;3.00;;;;;;;;;;10429147;28;20524;-75
2022/04/14 22:11:10;;;;;;;6.63;3.33;;;;;;;;;;10432251;28;20029;-68
2022/04/14 22:16:10;;;;;;;4.80;2.70;;;;;;;;;;10428397;28;20119;-71
2022/04/14 22:21:11;;;;;;;9.15;3.28;;;;;;;;;;10434580;28;20021;-75
2022/04/14 22:26:11;;;;;;;5.63;3.10;;;;;;;;;;10436497;28;20039;-70
2022/04/14 22:31:12;;;;;;;5.18;3.83;;;;;;;;;;10415499;28;20428;-70
2022/04/14 22:36:12;;;;;;;12.18;3.92;;;;;;;;;;10446283;28;20048;-73
2022/04/14 22:41:12;;;;;;;6.90;3.30;;;;;;;;;;10424376;28;20017;-72
2022/04/14 22:46:13;;;;;;;7.60;3.20;;;;;;;;;;10391189;28;20280;-71
2022/04/14 22:51:13;;;;;;;6.10;3.30;;;;;;;;;;10408334;28;20347;-74
2022/04/14 22:56:15;;;;;;;5.15;3.30;;;;;;;;;;10390623;28;20022;-70
2022/04/14 23:01:17;;;;;;;10.50;4.63;;;;;;;;;;10375253;28;20096;-69
2022/04/14 23:06:18;;;;;;;6.30;3.97;;;;;;;;;;10431109;28;20412;-75
2022/04/14 23:11:18;;;;;;;8.38;3.70;;;;;;;;;;10431156;28;20028;-73
2022/04/14 23:16:23;;;;;;;10.53;3.23;;;;;;;;;;10429606;28;20485;-78
2022/04/14 23:21:23;;;;;;;4.65;3.45;;;;;;;;;;10445799;28;20028;-74
2022/04/14 23:26:23;;;;;;;8.13;3.77;;;;;;;;;;10447783;28;20524;-71
2022/04/14 23:31:23;;;;;;;8.13;3.78;;;;;;;;;;10430771;28;20025;-74
2022/04/14 23:36:30;;;;;;;9.45;3.90;;;;;;;;;;10429734;28;20106;-71
2022/04/14 23:41:30;;;;;;;8.15;3.92;;;;;;;;;;10430237;28;20021;-71
2022/04/14 23:46:30;;;;;;;9.53;4.30;;;;;;;;;;10428774;28;20017;-75
2022/04/14 23:51:32;;;;;;;7.65;3.83;;;;;;;;;;10412836;28;20366;-70
2022/04/14 23:56:32;;;;;;;6.00;3.67;;;;;;;;;;10426648;28;20021;-69
